Time;durP1;ratioP1;P1;durP2;ratioP2;P2;SDS_P1;SDS_P2;PMS_P1;PMS_P2;Temp;Humidity;BMP_temperature;BMP_pressure;BME280_temperature;BME280_humidity;BME280_pressure;Samples;Min_cycle;Max_cycle;Signal;HPM_P1;HPM_P2
2024/03/07 00:00:34;;;;;;;48.37;25.00;;;6.80;90.10;;;;;;5043838;28;20128;-84
2024/03/07 00:03:01;;;;;;;45.63;24.13;;;6.80;90.20;;;;;;5044082;28;20119;-84
2024/03/07 00:05:29;;;;;;;44.40;25.63;;;6.70;90.20;;;;;;5043844;28;20473;-84
2024/03/07 00:07:55;;;;;;;45.57;26.10;;;6.70;90.30;;;;;;5044199;28;20021;-83
2024/03/07 00:10:23;;;;;;;47.57;25.17;;;6.70;90.40;;;;;;5043526;28;20020;-83
2024/03/07 00:12:48;;;;;;;47.40;26.50;;;6.60;90.50;;;;;;5040847;28;20050;-84
2024/03/07 00:15:15;;;;;;;44.43;23.90;;;6.60;90.60;;;;;;5040200;28;20136;-85
2024/03/07 00:17:41;;;;;;;46.13;27.43;;;6.60;90.70;;;;;;5040936;28;20017;-84
2024/03/07 00:20:14;;;;;;;49.63;27.83;;;6.60;90.80;;;;;;5040264;28;20366;-84
2024/03/07 00:22:41;;;;;;;50.10;27.70;;;6.60;90.80;;;;;;5041474;28;20037;-84
2024/03/07 00:25:08;;;;;;;44.10;25.57;;;6.60;90.80;;;;;;5040423;28;20021;-83
2024/03/07 00:27:35;;;;;;;47.27;25.13;;;6.50;90.90;;;;;;5039957;28;20026;-83
2024/03/07 00:30:02;;;;;;;46.03;26.00;;;6.50;90.90;;;;;;5040593;28;20029;-83
2024/03/07 00:32:29;;;;;;;47.63;25.60;;;6.50;91.00;;;;;;5039810;28;20017;-83
2024/03/07 00:34:58;;;;;;;45.97;24.93;;;6.50;91.10;;;;;;5039926;28;20068;-83
2024/03/07 00:37:27;;;;;;;48.50;27.00;;;6.50;91.20;;;;;;5039794;28;20026;-82
2024/03/07 00:39:53;;;;;;;46.97;25.93;;;6.50;91.30;;;;;;5039672;28;20057;-82
2024/03/07 00:42:19;;;;;;;46.50;26.13;;;6.40;91.40;;;;;;5040233;28;20093;-83
2024/03/07 00:44:49;;;;;;;50.23;26.83;;;6.40;91.50;;;;;;5039812;28;20021;-83
2024/03/07 00:47:17;;;;;;;49.13;27.60;;;6.40;91.50;;;;;;5039751;28;20025;-83
2024/03/07 00:49:43;;;;;;;45.90;26.53;;;6.40;91.60;;;;;;5039526;28;20049;-83
2024/03/07 00:52:10;;;;;;;54.43;28.50;;;6.40;91.60;;;;;;5040154;28;20033;-84
2024/03/07 00:54:36;;;;;;;49.67;26.20;;;6.30;91.60;;;;;;5039562;28;20025;-84
2024/03/07 00:57:01;;;;;;;45.17;26.30;;;6.30;91.80;;;;;;5039648;28;20154;-84
2024/03/07 00:59:30;;;;;;;53.00;28.33;;;6.30;91.90;;;;;;5040237;28;20065;-83
2024/03/07 01:01:56;;;;;;;50.97;28.20;;;6.30;92.10;;;;;;5039637;28;20022;-83
2024/03/07 01:04:22;;;;;;;51.30;28.03;;;6.30;92.10;;;;;;5040087;28;20021;-83
2024/03/07 01:06:48;;;;;;;48.27;26.83;;;6.30;92.20;;;;;;5039395;28;20022;-83
2024/03/07 01:09:14;;;;;;;47.13;27.40;;;6.20;92.20;;;;;;5040846;28;20022;-83
2024/03/07 01:11:47;;;;;;;47.47;26.77;;;6.30;92.30;;;;;;5039166;28;20061;-83
2024/03/07 01:14:13;;;;;;;47.15;27.73;;;6.30;92.30;;;;;;5038899;28;20052;-83
2024/03/07 01:16:39;;;;;;;50.63;29.30;;;6.20;92.30;;;;;;5039856;28;20059;-83
2024/03/07 01:19:05;;;;;;;46.00;25.40;;;6.20;92.40;;;;;;5039487;28;20093;-83
2024/03/07 01:21:32;;;;;;;51.60;26.93;;;6.20;92.40;;;;;;5039793;28;20022;-83
2024/03/07 01:24:00;;;;;;;53.63;28.60;;;6.20;92.50;;;;;;5039250;28;20076;-83
2024/03/07 01:26:27;;;;;;;52.90;28.63;;;6.10;92.90;;;;;;5038886;28;20089;-83
2024/03/07 01:28:54;;;;;;;49.07;26.87;;;6.10;92.80;;;;;;5038954;28;20075;-83
2024/03/07 01:31:21;;;;;;;47.53;26.77;;;6.10;92.80;;;;;;5038590;28;20014;-84
2024/03/07 01:33:47;;;;;;;51.00;27.10;;;6.10;92.90;;;;;;5039776;28;20047;-83
2024/03/07 01:36:12;;;;;;;47.43;26.40;;;6.00;93.00;;;;;;5040981;28;20049;-84
2024/03/07 01:38:38;;;;;;;49.40;27.30;;;6.00;93.20;;;;;;5043760;28;20017;-83
2024/03/07 01:41:04;;;;;;;45.30;26.33;;;6.00;93.50;;;;;;5042082;28;20096;-83
2024/03/07 01:43:31;;;;;;;45.40;26.87;;;6.00;93.30;;;;;;5041806;28;20039;-83
2024/03/07 01:46:00;;;;;;;50.57;27.20;;;6.00;93.40;;;;;;5042433;28;20022;-83
2024/03/07 01:48:28;;;;;;;51.80;27.57;;;6.00;93.50;;;;;;5041487;28;20026;-83
2024/03/07 01:50:55;;;;;;;52.27;28.00;;;6.00;93.60;;;;;;5039519;28;20025;-82
2024/03/07 01:53:22;;;;;;;56.13;27.83;;;5.90;93.70;;;;;;5038752;28;20017;-83
2024/03/07 01:55:49;;;;;;;52.87;28.60;;;5.90;93.80;;;;;;5038848;28;20021;-83
2024/03/07 01:58:18;;;;;;;51.00;28.20;;;5.90;93.90;;;;;;5038257;28;20052;-83
2024/03/07 02:00:44;;;;;;;56.37;28.77;;;5.90;94.00;;;;;;5038654;28;20040;-83
2024/03/07 02:03:10;;;;;;;49.90;28.60;;;5.90;94.00;;;;;;5038388;28;20057;-83
2024/03/07 02:05:36;;;;;;;50.73;28.07;;;5.90;94.10;;;;;;5038583;28;20030;-83
2024/03/07 02:08:01;;;;;;;52.83;29.23;;;5.90;94.10;;;;;;5042137;28;20018;-83
2024/03/07 02:10:27;;;;;;;48.13;27.90;;;5.90;94.20;;;;;;5042207;28;20025;-83
2024/03/07 02:12:53;;;;;;;55.57;30.17;;;5.90;94.30;;;;;;5042963;28;20128;-83
2024/03/07 02:15:19;;;;;;;48.77;28.80;;;5.90;94.50;;;;;;5042647;28;20034;-83
2024/03/07 02:17:44;;;;;;;50.07;27.87;;;5.90;94.50;;;;;;5042821;28;20085;-83
2024/03/07 02:20:11;;;;;;;52.80;29.27;;;5.90;94.60;;;;;;5042302;28;20100;-83
2024/03/07 02:22:40;;;;;;;57.90;30.87;;;5.80;94.60;;;;;;5041915;28;20021;-83
2024/03/07 02:25:06;;;;;;;48.23;27.10;;;5.90;94.80;;;;;;5042593;28;20017;-84
2024/03/07 02:27:32;;;;;;;53.70;29.33;;;5.80;94.80;;;;;;5041959;28;20017;-83
2024/03/07 02:29:58;;;;;;;51.87;28.87;;;5.80;95.00;;;;;;5042783;28;20045;-83
2024/03/07 02:32:23;;;;;;;50.83;28.83;;;5.80;95.00;;;;;;5041613;28;20060;-83
2024/03/07 02:34:49;;;;;;;48.50;27.37;;;5.80;95.00;;;;;;5042575;28;20032;-82
2024/03/07 02:37:15;;;;;;;55.60;28.93;;;5.80;95.00;;;;;;5043626;28;20029;-82
2024/03/07 02:39:41;;;;;;;53.13;28.03;;;5.80;95.10;;;;;;5041236;28;20038;-82
2024/03/07 02:42:06;;;;;;;52.43;28.87;;;5.80;95.20;;;;;;5042263;28;20029;-82
2024/03/07 02:44:32;;;;;;;54.80;29.37;;;5.80;95.20;;;;;;5041927;28;20052;-82
2024/03/07 02:46:58;;;;;;;51.60;28.47;;;5.80;95.30;;;;;;5042722;28;20095;-83
2024/03/07 02:49:24;;;;;;;53.50;29.13;;;5.80;95.40;;;;;;5042106;28;20449;-82
2024/03/07 02:51:50;;;;;;;55.57;30.17;;;5.80;95.50;;;;;;5042207;28;20018;-82
2024/03/07 02:54:15;;;;;;;53.43;29.90;;;5.70;95.50;;;;;;5041875;28;20013;-83
2024/03/07 02:56:41;;;;;;;48.43;26.83;;;5.70;95.60;;;;;;5042058;28;20053;-82
2024/03/07 02:59:07;;;;;;;51.57;29.03;;;5.70;95.80;;;;;;5042042;28;20033;-85
2024/03/07 03:01:33;;;;;;;55.80;30.57;;;5.70;95.80;;;;;;5041698;28;20029;-84
2024/03/07 03:03:58;;;;;;;62.23;31.80;;;5.70;95.90;;;;;;5043464;28;20081;-84
2024/03/07 03:06:24;;;;;;;52.73;29.80;;;5.70;96.10;;;;;;5041505;28;20029;-81
2024/03/07 03:08:50;;;;;;;58.27;32.33;;;5.70;96.10;;;;;;5041760;28;20049;-83
2024/03/07 03:11:16;;;;;;;54.20;29.73;;;5.70;96.10;;;;;;5041771;28;20018;-84
2024/03/07 03:13:42;;;;;;;56.03;29.63;;;5.70;96.20;;;;;;5041396;28;20103;-84
2024/03/07 03:16:08;;;;;;;53.50;30.10;;;5.70;96.20;;;;;;5041664;28;20029;-85
2024/03/07 03:18:34;;;;;;;55.83;30.37;;;5.70;96.20;;;;;;5041248;28;20029;-82
2024/03/07 03:21:00;;;;;;;55.23;30.27;;;5.60;96.30;;;;;;5041839;28;20029;-85
2024/03/07 03:23:26;;;;;;;53.40;29.93;;;5.70;96.30;;;;;;5040788;28;20048;-84
2024/03/07 03:25:52;;;;;;;56.57;30.57;;;5.60;96.50;;;;;;5041924;28;20021;-84
2024/03/07 03:28:18;;;;;;;56.63;30.63;;;5.60;96.60;;;;;;5041198;28;20029;-83
2024/03/07 03:30:44;;;;;;;53.00;29.97;;;5.60;96.50;;;;;;5040541;28;20044;-82
2024/03/07 03:33:11;;;;;;;58.97;30.20;;;5.60;96.50;;;;;;5025575;28;20025;-83
2024/03/07 03:35:40;;;;;;;55.50;29.10;;;5.60;96.50;;;;;;5021137;28;20022;-83
2024/03/07 03:38:06;;;;;;;57.10;29.20;;;5.60;96.60;;;;;;5026706;28;20030;-83
2024/03/07 03:40:32;;;;;;;56.70;31.20;;;5.60;96.70;;;;;;5038640;28;20493;-84
2024/03/07 03:42:59;;;;;;;52.83;29.80;;;5.60;96.80;;;;;;5041469;28;20485;-83
2024/03/07 03:45:27;;;;;;;56.13;30.33;;;5.60;96.80;;;;;;5041080;28;20032;-83
2024/03/07 03:47:53;;;;;;;52.63;28.60;;;5.60;96.90;;;;;;5040921;28;20022;-83
2024/03/07 03:50:19;;;;;;;54.77;28.93;;;5.60;97.00;;;;;;5040934;28;20104;-83
2024/03/07 03:52:45;;;;;;;54.10;28.97;;;5.50;96.90;;;;;;5040610;28;20036;-84
2024/03/07 03:55:11;;;;;;;56.70;30.23;;;5.50;97.00;;;;;;5041391;28;20025;-83
2024/03/07 03:57:42;;;;;;;54.90;29.90;;;5.50;97.10;;;;;;5040233;28;20064;-83
2024/03/07 04:00:16;;;;;;;52.57;29.40;;;5.50;97.10;;;;;;5041042;28;20038;-83
2024/03/07 04:02:49;;;;;;;53.60;28.57;;;5.50;97.30;;;;;;5040676;28;20036;-82
2024/03/07 04:05:16;;;;;;;56.17;29.73;;;5.50;97.20;;;;;;5040312;28;20097;-83
2024/03/07 04:07:42;;;;;;;53.20;29.90;;;5.50;97.30;;;;;;5040714;28;20036;-82
2024/03/07 04:10:09;;;;;;;55.43;31.07;;;5.50;97.40;;;;;;5040480;28;20029;-82
2024/03/07 04:12:37;;;;;;;53.73;29.07;;;5.50;97.40;;;;;;5043139;28;20036;-82
2024/03/07 04:15:07;;;;;;;53.77;30.67;;;5.40;97.30;;;;;;5061932;28;20040;-82
2024/03/07 04:17:37;;;;;;;51.17;29.47;;;5.50;97.40;;;;;;5043689;28;20092;-81
2024/03/07 04:20:10;;;;;;;55.27;30.33;;;5.50;97.50;;;;;;5043462;28;20119;-81
2024/03/07 04:22:38;;;;;;;58.97;29.17;;;5.40;97.50;;;;;;5043664;28;20565;-81
2024/03/07 04:25:06;;;;;;;54.43;29.60;;;5.40;97.50;;;;;;5043805;28;20515;-81
2024/03/07 04:27:39;;;;;;;50.87;28.90;;;5.40;97.70;;;;;;5042975;28;20021;-82
2024/03/07 04:30:07;;;;;;;51.83;29.23;;;5.40;97.70;;;;;;5043305;28;20446;-84
2024/03/07 04:32:36;;;;;;;55.47;30.23;;;5.40;97.80;;;;;;5043053;28;20032;-82
2024/03/07 04:35:07;;;;;;;55.93;30.40;;;5.40;97.90;;;;;;5043498;28;20017;-83
2024/03/07 04:37:36;;;;;;;54.30;29.37;;;5.40;97.90;;;;;;5043040;28;20108;-81
2024/03/07 04:40:14;;;;;;;60.10;30.23;;;5.30;98.00;;;;;;5042847;28;20060;-82
2024/03/07 04:42:50;;;;;;;51.63;29.80;;;5.40;98.00;;;;;;5043520;28;20029;-82
2024/03/07 04:45:17;;;;;;;51.70;29.57;;;5.30;98.00;;;;;;5042980;28;20048;-82
2024/03/07 04:47:46;;;;;;;53.07;29.50;;;5.30;98.00;;;;;;5043193;28;20115;-82
2024/03/07 04:50:13;;;;;;;59.57;30.13;;;5.30;98.10;;;;;;5042700;28;20029;-83
2024/03/07 04:52:39;;;;;;;51.37;28.40;;;5.30;98.10;;;;;;5042840;28;20083;-82
2024/03/07 04:55:10;;;;;;;52.13;29.33;;;5.20;98.20;;;;;;5043186;28;20025;-82
2024/03/07 04:57:40;;;;;;;51.73;30.17;;;5.20;98.20;;;;;;5042461;28;20021;-82
2024/03/07 05:00:18;;;;;;;53.87;30.07;;;5.20;98.20;;;;;;5043291;28;20122;-83
2024/03/07 05:02:46;;;;;;;52.70;28.03;;;5.20;98.20;;;;;;5042866;28;20116;-82
2024/03/07 05:05:12;;;;;;;48.70;27.93;;;5.10;98.40;;;;;;5042700;28;20035;-82
2024/03/07 05:07:40;;;;;;;54.53;29.37;;;5.10;98.30;;;;;;5042393;28;20514;-81
2024/03/07 05:10:07;;;;;;;55.33;29.90;;;5.10;98.50;;;;;;5042577;28;20020;-81
2024/03/07 05:12:33;;;;;;;58.60;30.40;;;5.10;98.60;;;;;;5043167;28;20535;-81
2024/03/07 05:14:59;;;;;;;56.07;29.47;;;5.10;98.70;;;;;;5042530;28;20021;-83
2024/03/07 05:17:25;;;;;;;55.20;31.50;;;5.10;98.70;;;;;;5061614;28;20111;-83
2024/03/07 05:19:50;;;;;;;58.00;30.33;;;5.10;98.70;;;;;;5045355;28;20037;-83
2024/03/07 05:22:18;;;;;;;49.57;27.27;;;5.10;98.70;;;;;;5045753;28;20025;-83
2024/03/07 05:24:43;;;;;;;53.53;28.60;;;5.10;98.70;;;;;;5037641;28;20516;-83
2024/03/07 05:27:12;;;;;;;56.23;30.50;;;5.00;98.90;;;;;;5025958;28;20022;-80
2024/03/07 05:29:38;;;;;;;49.73;26.27;;;5.00;98.80;;;;;;5044674;28;20055;-80
2024/03/07 05:32:27;;;;;;;52.27;27.73;;;5.00;98.80;;;;;;5042597;28;20029;-81
2024/03/07 05:34:56;;;;;;;50.53;28.50;;;5.00;98.90;;;;;;5042639;28;20092;-81
2024/03/07 05:37:22;;;;;;;51.23;27.50;;;5.00;98.90;;;;;;5042301;28;20020;-81
2024/03/07 05:39:48;;;;;;;55.23;29.40;;;5.00;98.90;;;;;;5042016;28;20072;-81
2024/03/07 05:42:14;;;;;;;45.73;28.13;;;5.00;99.00;;;;;;5041721;28;20025;-80
2024/03/07 05:44:43;;;;;;;51.37;27.07;;;4.90;98.90;;;;;;5041738;28;20503;-80
2024/03/07 05:47:09;;;;;;;52.37;27.13;;;4.90;98.90;;;;;;5042344;28;20025;-80
2024/03/07 05:49:36;;;;;;;48.13;27.20;;;4.90;98.90;;;;;;5042136;28;20028;-79
2024/03/07 05:52:03;;;;;;;50.93;27.20;;;4.90;99.00;;;;;;5042304;28;20025;-79
2024/03/07 05:54:32;;;;;;;48.60;27.37;;;4.80;99.10;;;;;;5060267;28;20025;-82
2024/03/07 05:56:57;;;;;;;50.67;26.80;;;4.80;99.20;;;;;;5041900;28;20013;-80
2024/03/07 05:59:23;;;;;;;46.57;25.40;;;4.80;99.20;;;;;;5042051;28;20044;-78
2024/03/07 06:01:50;;;;;;;45.30;25.83;;;4.80;99.10;;;;;;5059467;28;20017;-79
2024/03/07 06:04:16;;;;;;;48.03;27.37;;;4.90;99.20;;;;;;5041916;28;20060;-79
2024/03/07 06:06:42;;;;;;;46.27;26.80;;;4.80;99.30;;;;;;5039432;28;20021;-80
2024/03/07 06:09:09;;;;;;;52.80;27.30;;;4.90;99.30;;;;;;5040619;28;20021;-79
2024/03/07 06:11:36;;;;;;;49.80;27.70;;;4.90;99.30;;;;;;5038767;28;20063;-80
2024/03/07 06:14:06;;;;;;;49.67;27.50;;;4.80;99.30;;;;;;5021826;28;20045;-79
2024/03/07 06:16:39;;;;;;;49.53;25.47;;;4.80;99.20;;;;;;5021978;28;20084;-78
2024/03/07 06:19:09;;;;;;;46.77;24.50;;;4.80;99.30;;;;;;5038214;28;20028;-79
2024/03/07 06:21:36;;;;;;;50.23;26.23;;;4.80;99.40;;;;;;5059569;28;20029;-79
2024/03/07 06:24:03;;;;;;;49.20;25.70;;;4.80;99.50;;;;;;5040628;28;20047;-78
2024/03/07 06:26:47;;;;;;;42.97;24.13;;;4.80;99.50;;;;;;5041494;28;20017;-80
2024/03/07 06:29:15;;;;;;;45.63;25.57;;;4.90;99.50;;;;;;5041598;28;20086;-79
2024/03/07 06:31:42;;;;;;;46.70;26.50;;;4.80;99.50;;;;;;5040284;28;20025;-79
2024/03/07 06:34:08;;;;;;;43.10;23.63;;;4.80;99.40;;;;;;5041290;28;20187;-79
2024/03/07 06:36:34;;;;;;;41.10;23.23;;;4.90;99.50;;;;;;5039833;28;20396;-79
2024/03/07 06:39:00;;;;;;;44.27;24.77;;;4.80;99.50;;;;;;5041131;28;20017;-79
2024/03/07 06:41:26;;;;;;;42.27;24.03;;;4.90;99.50;;;;;;5040992;28;20427;-79
2024/03/07 06:43:55;;;;;;;40.60;24.33;;;4.90;99.60;;;;;;5040905;28;20444;-79
2024/03/07 06:46:21;;;;;;;41.97;23.67;;;4.90;99.50;;;;;;5041180;28;20028;-79
2024/03/07 06:48:46;;;;;;;42.57;23.67;;;4.90;99.50;;;;;;5041409;28;20104;-79
2024/03/07 06:51:13;;;;;;;43.23;23.70;;;4.90;99.50;;;;;;5041998;28;20017;-79
2024/03/07 06:53:39;;;;;;;45.23;23.63;;;4.90;99.60;;;;;;5043597;28;20044;-81
2024/03/07 06:56:06;;;;;;;44.90;24.93;;;4.90;99.60;;;;;;5045848;28;20092;-80
2024/03/07 06:58:32;;;;;;;44.03;24.30;;;5.00;99.70;;;;;;5062886;28;20017;-84
2024/03/07 07:01:00;;;;;;;39.83;23.70;;;5.00;99.70;;;;;;5044863;28;20029;-84
2024/03/07 07:03:27;;;;;;;43.27;24.43;;;5.00;99.70;;;;;;5034995;28;20124;-84
2024/03/07 07:05:54;;;;;;;43.60;25.33;;;5.00;99.60;;;;;;5044893;28;20055;-83
2024/03/07 07:08:21;;;;;;;43.80;23.73;;;5.00;99.70;;;;;;5045176;28;20085;-82
2024/03/07 07:10:47;;;;;;;48.30;25.23;;;5.00;99.80;;;;;;5044542;28;20028;-82
2024/03/07 07:13:13;;;;;;;39.73;23.20;;;5.00;99.80;;;;;;5063326;28;20182;-82
2024/03/07 07:15:40;;;;;;;40.87;22.80;;;5.10;99.70;;;;;;5044724;28;20028;-82
2024/03/07 07:18:07;;;;;;;45.20;24.47;;;5.10;99.80;;;;;;5045698;28;20017;-82
2024/03/07 07:20:36;;;;;;;47.40;25.63;;;5.10;99.70;;;;;;5044932;28;20549;-82
2024/03/07 07:23:03;;;;;;;44.23;24.57;;;5.10;99.70;;;;;;5044201;28;20048;-82
2024/03/07 07:28:08;;;;;;;46.37;23.83;;;5.10;99.60;;;;;;5053771;28;20041;-82
2024/03/07 07:30:33;;;;;;;42.30;22.13;;;5.20;99.60;;;;;;5036999;28;20136;-82
2024/03/07 07:32:59;;;;;;;41.57;22.43;;;5.20;99.50;;;;;;5036932;28;20112;-81
2024/03/07 07:35:26;;;;;;;36.80;22.80;;;5.20;99.60;;;;;;5025192;22;20054;-82
2024/03/07 07:37:55;;;;;;;38.93;22.93;;;5.20;99.60;;;;;;4994155;28;20041;-82
2024/03/07 07:40:23;;;;;;;38.23;22.13;;;5.30;99.50;;;;;;4994499;28;20173;-82
2024/03/07 07:42:51;;;;;;;33.17;20.87;;;5.30;99.50;;;;;;4993984;28;20019;-82
2024/03/07 07:45:18;;;;;;;38.40;22.33;;;5.30;99.50;;;;;;4994261;28;20023;-83
2024/03/07 07:47:45;;;;;;;41.13;24.10;;;5.40;99.50;;;;;;4994672;28;20022;-81
2024/03/07 07:50:13;;;;;;;40.47;24.13;;;5.40;99.40;;;;;;4994317;28;20023;-82
2024/03/07 07:52:50;;;;;;;35.17;22.07;;;5.40;99.30;;;;;;4993856;28;20081;-82
2024/03/07 07:55:34;;;;;;;35.33;20.07;;;5.40;99.30;;;;;;4994117;28;20169;-82
2024/03/07 07:58:03;;;;;;;33.03;19.92;;;5.50;99.20;;;;;;4993783;28;20049;-83
2024/03/07 08:00:30;;;;;;;38.80;21.23;;;5.50;99.00;;;;;;4994739;28;20030;-82
2024/03/07 08:03:09;;;;;;;36.83;21.57;;;5.60;98.90;;;;;;4995181;28;20026;-82
2024/03/07 08:05:36;;;;;;;33.33;20.37;;;5.60;98.70;;;;;;4993108;28;20085;-83
2024/03/07 08:08:16;;;;;;;30.20;17.87;;;5.60;98.60;;;;;;4994387;28;20019;-83
2024/03/07 08:10:42;;;;;;;32.53;19.17;;;5.60;98.70;;;;;;4994374;28;20018;-82
2024/03/07 08:13:12;;;;;;;30.40;18.80;;;5.70;98.60;;;;;;4993507;28;20033;-82
2024/03/07 08:15:38;;;;;;;31.17;18.63;;;5.70;98.60;;;;;;4995648;28;20398;-83
2024/03/07 08:18:08;;;;;;;33.80;20.50;;;5.70;98.50;;;;;;4993976;28;20017;-81
2024/03/07 08:20:34;;;;;;;38.47;19.73;;;5.80;98.40;;;;;;4995047;28;20516;-82
2024/03/07 08:23:00;;;;;;;29.47;17.40;;;5.80;98.20;;;;;;4993531;28;20482;-82
2024/03/07 08:25:28;;;;;;;27.30;16.80;;;5.90;98.50;;;;;;4993598;28;20050;-82
2024/03/07 08:27:56;;;;;;;30.60;19.73;;;5.90;98.10;;;;;;4993270;28;20053;-83
2024/03/07 08:30:22;;;;;;;29.03;17.57;;;6.00;98.00;;;;;;4994672;28;20038;-82
2024/03/07 08:33:07;;;;;;;27.47;17.50;;;6.00;98.00;;;;;;4994234;28;20111;-82
2024/03/07 08:35:33;;;;;;;28.03;17.63;;;6.10;97.90;;;;;;4993129;28;20034;-81
2024/03/07 08:37:59;;;;;;;27.20;16.23;;;6.10;97.80;;;;;;4994516;28;20026;-82
2024/03/07 08:40:28;;;;;;;30.53;17.87;;;6.10;97.80;;;;;;4993099;28;20453;-82
2024/03/07 08:42:54;;;;;;;26.63;16.63;;;6.20;97.70;;;;;;4994641;28;20080;-81
2024/03/07 08:45:20;;;;;;;26.33;16.67;;;6.20;97.60;;;;;;4994125;28;20033;-82
2024/03/07 08:47:56;;;;;;;28.77;17.27;;;6.30;97.60;;;;;;4992908;28;20027;-82
2024/03/07 08:50:23;;;;;;;29.30;18.03;;;6.40;97.40;;;;;;4992770;28;20041;-82
2024/03/07 08:52:50;;;;;;;26.80;16.13;;;6.40;97.20;;;;;;4994300;28;20049;-81
2024/03/07 08:55:18;;;;;;;24.90;16.03;;;6.50;97.30;;;;;;4992857;28;20117;-82
2024/03/07 08:57:46;;;;;;;25.73;16.97;;;6.50;97.30;;;;;;4993071;28;20029;-82
2024/03/07 09:00:22;;;;;;;27.27;17.13;;;6.60;97.00;;;;;;4994414;28;20050;-82
2024/03/07 09:02:48;;;;;;;29.20;17.60;;;6.70;97.00;;;;;;4994236;28;20030;-82
2024/03/07 09:05:15;;;;;;;29.67;17.43;;;6.70;96.90;;;;;;4993096;28;20430;-82
2024/03/07 09:07:41;;;;;;;28.57;18.50;;;6.80;96.70;;;;;;4994139;28;20026;-81
2024/03/07 09:10:07;;;;;;;23.37;16.03;;;6.90;96.60;;;;;;4992649;28;20433;-82
2024/03/07 09:12:33;;;;;;;28.20;16.67;;;6.90;96.50;;;;;;4993057;28;20026;-83
2024/03/07 09:14:58;;;;;;;28.23;17.40;;;6.90;96.30;;;;;;4994042;28;20026;-82
2024/03/07 09:17:24;;;;;;;25.30;15.23;;;7.00;96.20;;;;;;4993681;28;20459;-81
2024/03/07 09:19:50;;;;;;;26.13;16.77;;;7.10;96.30;;;;;;4992991;28;20081;-80
2024/03/07 09:22:16;;;;;;;23.23;14.40;;;7.10;95.90;;;;;;4993078;28;20026;-82
2024/03/07 09:24:41;;;;;;;28.60;16.90;;;7.20;96.00;;;;;;4992547;28;20103;-82
2024/03/07 09:27:08;;;;;;;22.03;13.97;;;7.30;95.90;;;;;;4992242;28;20022;-82
2024/03/07 09:29:33;;;;;;;23.17;15.00;;;7.40;96.00;;;;;;4992837;28;20022;-82
2024/03/07 09:31:59;;;;;;;25.83;16.13;;;7.40;95.80;;;;;;4992455;28;20028;-82
2024/03/07 09:34:25;;;;;;;21.13;14.13;;;7.50;95.70;;;;;;4992829;28;20530;-82
2024/03/07 09:36:51;;;;;;;24.07;14.20;;;7.60;95.60;;;;;;5032329;28;20067;-82
2024/03/07 09:39:18;;;;;;;23.57;14.10;;;7.70;95.40;;;;;;5014929;28;20013;-82
2024/03/07 09:41:44;;;;;;;25.20;15.20;;;7.80;95.40;;;;;;5015126;28;20441;-81
2024/03/07 09:44:21;;;;;;;23.73;16.20;;;7.80;95.10;;;;;;5015066;28;20385;-81
2024/03/07 09:46:48;;;;;;;22.50;14.50;;;7.90;94.50;;;;;;5014794;28;20441;-82
2024/03/07 09:49:14;;;;;;;24.80;14.93;;;8.00;94.80;;;;;;5033026;28;20022;-82
2024/03/07 09:51:42;;;;;;;25.30;15.97;;;8.10;94.60;;;;;;5015030;28;20022;-82
2024/03/07 09:54:09;;;;;;;25.30;15.67;;;8.10;94.10;;;;;;5014896;28;20547;-82
2024/03/07 09:56:37;;;;;;;23.20;15.00;;;8.20;94.10;;;;;;5015056;28;20021;-82
2024/03/07 09:59:04;;;;;;;21.50;14.13;;;8.30;94.10;;;;;;5014900;28;20547;-82
2024/03/07 10:01:36;;;;;;;24.80;15.57;;;8.40;93.90;;;;;;5032536;28;20017;-81
2024/03/07 10:04:11;;;;;;;20.20;12.07;;;8.60;93.70;;;;;;5015403;28;20014;-80
2024/03/07 10:06:39;;;;;;;20.30;12.63;;;8.80;93.80;;;;;;5015659;28;20033;-81
2024/03/07 10:09:06;;;;;;;23.67;14.97;;;9.00;93.90;;;;;;5014968;28;20124;-82
2024/03/07 10:11:32;;;;;;;20.17;12.27;;;9.30;92.80;;;;;;5014577;28;20492;-81
2024/03/07 10:13:58;;;;;;;19.80;13.10;;;9.70;93.20;;;;;;5015135;28;20500;-82
2024/03/07 10:16:24;;;;;;;18.60;11.80;;;10.10;93.40;;;;;;5013161;28;20030;-82
2024/03/07 10:18:50;;;;;;;17.55;11.13;;;10.60;93.80;;;;;;5014930;28;20101;-81
2024/03/07 10:21:23;;;;;;;13.20;8.77;;;11.10;94.20;;;;;;5014817;28;20112;-82
2024/03/07 10:23:51;;;;;;;13.02;8.35;;;11.90;94.60;;;;;;5022831;28;20025;-82
2024/03/07 10:26:17;;;;;;;13.30;7.28;;;12.60;95.10;;;;;;5011538;28;20041;-81
2024/03/07 10:28:43;;;;;;;12.52;8.50;;;13.30;95.30;;;;;;4997796;28;20084;-83
2024/03/07 10:31:11;;;;;;;13.20;8.65;;;14.00;94.00;;;;;;5009049;28;20022;-82
2024/03/07 10:33:40;;;;;;;12.38;8.18;;;14.50;93.10;;;;;;5012957;28;20068;-82
2024/03/07 10:36:09;;;;;;;12.40;7.13;;;15.20;92.30;;;;;;5023313;28;20041;-81
2024/03/07 10:38:37;;;;;;;12.60;9.38;;;15.70;91.60;;;;;;5034517;28;20029;-81
2024/03/07 10:41:04;;;;;;;13.93;10.32;;;16.20;86.30;;;;;;5034795;28;20485;-81
2024/03/07 10:43:30;;;;;;;13.98;10.02;;;16.60;78.50;;;;;;5036347;28;20025;-82
2024/03/07 10:46:00;;;;;;;14.05;9.15;;;16.70;77.90;;;;;;5018543;28;20033;-82
2024/03/07 10:48:31;;;;;;;11.25;8.57;;;17.00;76.90;;;;;;5034823;28;20040;-82
2024/03/07 10:51:00;;;;;;;12.90;9.07;;;17.40;75.30;;;;;;5034878;28;20018;-82
2024/03/07 10:53:58;;;;;;;16.10;10.43;;;17.70;74.60;;;;;;5036588;28;20036;-81
2024/03/07 10:56:36;;;;;;;12.52;8.35;;;18.10;70.70;;;;;;5036376;28;20056;-82
2024/03/07 10:59:02;;;;;;;12.27;7.82;;;18.30;70.50;;;;;;5018203;28;20079;-83
2024/03/07 11:01:33;;;;;;;13.85;9.55;;;18.50;70.10;;;;;;5036397;28;20440;-81
2024/03/07 11:03:59;;;;;;;13.25;8.68;;;18.90;67.80;;;;;;5018302;28;20389;-83
2024/03/07 11:06:26;;;;;;;12.00;8.82;;;19.10;66.60;;;;;;5017762;28;20516;-83
2024/03/07 11:08:53;;;;;;;11.55;8.88;;;19.40;65.10;;;;;;5036215;28;20029;-84
2024/03/07 11:11:19;;;;;;;13.75;9.05;;;19.70;64.30;;;;;;5035001;28;20025;-83
2024/03/07 11:13:46;;;;;;;9.98;7.32;;;20.10;62.60;;;;;;5036088;28;20024;-82
2024/03/07 11:16:14;;;;;;;11.95;8.60;;;20.40;61.80;;;;;;5034183;28;20052;-82
2024/03/07 11:18:40;;;;;;;11.30;8.20;;;20.70;60.60;;;;;;5017747;28;20017;-83
2024/03/07 11:21:07;;;;;;;12.18;8.55;;;21.00;59.40;;;;;;5035129;28;20380;-83
2024/03/07 11:23:38;;;;;;;11.63;8.07;;;21.20;58.40;;;;;;5034276;28;20028;-83
2024/03/07 11:26:10;;;;;;;9.88;7.43;;;21.40;57.20;;;;;;5035464;28;20381;-83
2024/03/07 11:28:38;;;;;;;12.80;8.65;;;21.70;56.50;;;;;;5035196;28;20026;-84
2024/03/07 11:31:11;;;;;;;14.27;8.90;;;22.10;55.70;;;;;;5017046;28;20087;-83
2024/03/07 11:33:40;;;;;;;13.83;8.47;;;22.30;54.60;;;;;;5035296;28;20029;-83
2024/03/07 11:36:11;;;;;;;12.32;9.05;;;22.60;53.70;;;;;;5017006;28;20073;-84
2024/03/07 11:38:50;;;;;;;11.20;8.45;;;22.40;52.80;;;;;;5017360;28;20032;-84
2024/03/07 11:41:19;;;;;;;11.60;7.95;;;22.20;52.50;;;;;;5034748;28;20025;-82
2024/03/07 11:43:46;;;;;;;12.85;8.68;;;22.10;51.70;;;;;;5035098;28;20024;-82
2024/03/07 11:46:16;;;;;;;13.38;9.82;;;21.90;50.20;;;;;;5017333;28;20022;-83
2024/03/07 11:48:42;;;;;;;13.85;8.98;;;21.80;50.40;;;;;;5035004;28;20028;-83
2024/03/07 11:51:12;;;;;;;13.32;9.65;;;21.70;49.90;;;;;;5017038;28;20044;-83
2024/03/07 11:53:41;;;;;;;12.30;8.90;;;21.90;49.80;;;;;;5017051;28;20041;-82
2024/03/07 11:56:09;;;;;;;13.45;8.48;;;22.20;49.70;;;;;;5034701;28;20108;-84
2024/03/07 11:58:41;;;;;;;12.55;9.05;;;22.50;49.50;;;;;;5016977;28;20120;-83
2024/03/07 12:01:10;;;;;;;13.38;9.45;;;22.70;49.10;;;;;;5017317;28;20478;-83
2024/03/07 12:03:37;;;;;;;13.43;9.18;;;22.90;48.40;;;;;;5034718;28;20026;-82
2024/03/07 12:06:03;;;;;;;13.23;9.30;;;23.30;48.00;;;;;;5035068;28;20040;-83
2024/03/07 12:08:29;;;;;;;11.65;8.57;;;23.70;47.60;;;;;;5016477;28;20112;-83
2024/03/07 12:10:56;;;;;;;12.73;8.88;;;23.90;46.60;;;;;;5016833;28;20532;-83
2024/03/07 12:13:22;;;;;;;12.15;8.48;;;24.10;45.80;;;;;;5034551;28;20020;-83
2024/03/07 12:15:51;;;;;;;13.48;8.77;;;24.10;45.30;;;;;;5034778;28;20421;-83
2024/03/07 12:18:18;;;;;;;12.07;8.85;;;24.20;45.10;;;;;;5017340;28;20432;-83
2024/03/07 12:20:53;;;;;;;11.65;8.65;;;24.30;44.80;;;;;;5034428;28;20033;-83
2024/03/07 12:23:22;;;;;;;10.88;7.85;;;24.30;44.80;;;;;;5034189;28;20021;-82
2024/03/07 12:25:47;;;;;;;11.35;8.38;;;24.40;45.00;;;;;;5016953;28;20167;-83
2024/03/07 12:28:17;;;;;;;11.05;8.25;;;24.70;44.60;;;;;;5034590;28;20104;-83
2024/03/07 12:30:45;;;;;;;11.20;8.27;;;24.90;44.30;;;;;;5034398;28;20494;-83
2024/03/07 12:33:13;;;;;;;10.20;7.85;;;24.90;43.50;;;;;;5015951;28;20048;-83
2024/03/07 12:36:05;;;;;;;11.05;8.07;;;24.90;43.30;;;;;;5016285;28;20042;-84
2024/03/07 12:38:37;;;;;;;10.10;7.18;;;25.00;42.80;;;;;;5015969;28;20025;-83
2024/03/07 12:41:05;;;;;;;9.98;7.60;;;25.20;43.00;;;;;;5016654;28;20087;-84